sensor_id;sensor_type;location;lat;lon;timestamp;pressure;altitude;pressure_sealevel;temperature;humidity
69855;BME280;57146;48.140;16.304;2024-01-30T00:00:39;101238.00;;;-0.80;95.39
69855;BME280;57146;48.140;16.304;2024-01-30T00:03:06;101227.41;;;-0.70;95.50
69855;BME280;57146;48.140;16.304;2024-01-30T00:05:34;101234.44;;;-0.64;95.45
69855;BME280;57146;48.140;16.304;2024-01-30T00:08:01;101233.13;;;-0.60;95.38
69855;BME280;57146;48.140;16.304;2024-01-30T00:10:28;101230.81;;;-0.55;95.77
69855;BME280;57146;48.140;16.304;2024-01-30T00:12:55;101235.97;;;-0.55;94.82
69855;BME280;57146;48.140;16.304;2024-01-30T00:15:23;101232.25;;;-0.53;94.87
69855;BME280;57146;48.140;16.304;2024-01-30T00:17:50;101225.72;;;-0.49;94.79
69855;BME280;57146;48.140;16.304;2024-01-30T00:20:17;101229.13;;;-0.48;94.27
69855;BME280;57146;48.140;16.304;2024-01-30T00:22:45;101223.41;;;-0.43;94.17
69855;BME280;57146;48.140;16.304;2024-01-30T00:25:12;101229.38;;;-0.43;94.10
69855;BME280;57146;48.140;16.304;2024-01-30T00:27:39;101227.78;;;-0.44;93.85
69855;BME280;57146;48.140;16.304;2024-01-30T00:30:06;101225.81;;;-0.42;93.38
69855;BME280;57146;48.140;16.304;2024-01-30T00:32:34;101235.53;;;-0.44;94.17
69855;BME280;57146;48.140;16.304;2024-01-30T00:35:01;101237.13;;;-0.43;94.10
69855;BME280;57146;48.140;16.304;2024-01-30T00:37:28;101243.56;;;-0.39;94.12
69855;BME280;57146;48.140;16.304;2024-01-30T00:39:55;101239.38;;;-0.40;93.35
69855;BME280;57146;48.140;16.304;2024-01-30T00:42:22;101249.72;;;-0.40;93.17
69855;BME280;57146;48.140;16.304;2024-01-30T00:44:49;101245.72;;;-0.42;93.27
69855;BME280;57146;48.140;16.304;2024-01-30T00:47:16;101254.44;;;-0.43;93.30
69855;BME280;57146;48.140;16.304;2024-01-30T00:49:43;101237.31;;;-0.44;93.64
69855;BME280;57146;48.140;16.304;2024-01-30T00:52:10;101246.88;;;-0.45;92.89
69855;BME280;57146;48.140;16.304;2024-01-30T00:54:37;101244.28;;;-0.45;93.69
69855;BME280;57146;48.140;16.304;2024-01-30T00:57:04;101238.38;;;-0.54;93.24
69855;BME280;57146;48.140;16.304;2024-01-30T00:59:31;101233.22;;;-0.54;92.96
69855;BME280;57146;48.140;16.304;2024-01-30T01:01:58;101229.03;;;-0.55;92.68
69855;BME280;57146;48.140;16.304;2024-01-30T01:04:26;101226.28;;;-0.53;93.14
69855;BME280;57146;48.140;16.304;2024-01-30T01:06:52;101225.81;;;-0.57;92.59
69855;BME280;57146;48.140;16.304;2024-01-30T01:09:20;101222.41;;;-0.57;92.78
69855;BME280;57146;48.140;16.304;2024-01-30T01:11:47;101214.84;;;-0.59;92.74
69855;BME280;57146;48.140;16.304;2024-01-30T01:14:14;101222.59;;;-0.59;92.69
69855;BME280;57146;48.140;16.304;2024-01-30T01:16:41;101212.25;;;-0.59;93.20
69855;BME280;57146;48.140;16.304;2024-01-30T01:19:08;101213.06;;;-0.58;93.43
69855;BME280;57146;48.140;16.304;2024-01-30T01:21:35;101217.63;;;-0.60;93.53
69855;BME280;57146;48.140;16.304;2024-01-30T01:24:02;101214.41;;;-0.62;93.46
69855;BME280;57146;48.140;16.304;2024-01-30T01:26:30;101216.00;;;-0.61;92.95
69855;BME280;57146;48.140;16.304;2024-01-30T01:28:57;101213.59;;;-0.63;93.51
69855;BME280;57146;48.140;16.304;2024-01-30T01:31:24;101214.75;;;-0.65;93.88
69855;BME280;57146;48.140;16.304;2024-01-30T01:33:51;101214.13;;;-0.67;92.90
69855;BME280;57146;48.140;16.304;2024-01-30T01:36:18;101199.69;;;-0.77;93.34
69855;BME280;57146;48.140;16.304;2024-01-30T01:38:45;101203.41;;;-0.79;93.13
69855;BME280;57146;48.140;16.304;2024-01-30T01:41:12;101206.19;;;-0.81;93.12
69855;BME280;57146;48.140;16.304;2024-01-30T01:43:39;101192.00;;;-0.85;93.05
69855;BME280;57146;48.140;16.304;2024-01-30T01:46:06;101202.06;;;-0.90;92.73
69855;BME280;57146;48.140;16.304;2024-01-30T01:48:33;101205.00;;;-0.93;92.89
69855;BME280;57146;48.140;16.304;2024-01-30T01:51:00;101206.78;;;-0.93;93.26
69855;BME280;57146;48.140;16.304;2024-01-30T01:53:28;101201.50;;;-1.00;92.93
69855;BME280;57146;48.140;16.304;2024-01-30T01:55:55;101199.31;;;-1.03;93.38
69855;BME280;57146;48.140;16.304;2024-01-30T01:58:27;101200.25;;;-1.04;93.17
69855;BME280;57146;48.140;16.304;2024-01-30T02:00:54;101192.69;;;-1.06;92.95
69855;BME280;57146;48.140;16.304;2024-01-30T02:03:22;101205.63;;;-1.06;92.43
69855;BME280;57146;48.140;16.304;2024-01-30T02:05:51;101190.91;;;-1.05;92.71
69855;BME280;57146;48.140;16.304;2024-01-30T02:08:18;101202.38;;;-1.08;93.40
69855;BME280;57146;48.140;16.304;2024-01-30T02:10:45;101200.00;;;-1.09;93.51
69855;BME280;57146;48.140;16.304;2024-01-30T02:13:12;101193.72;;;-1.15;93.65
69855;BME280;57146;48.140;16.304;2024-01-30T02:15:40;101195.88;;;-1.18;93.26
69855;BME280;57146;48.140;16.304;2024-01-30T02:18:07;101198.00;;;-1.22;93.18
69855;BME280;57146;48.140;16.304;2024-01-30T02:20:35;101193.47;;;-1.20;93.24
69855;BME280;57146;48.140;16.304;2024-01-30T02:23:02;101192.28;;;-1.17;93.07
69855;BME280;57146;48.140;16.304;2024-01-30T02:25:39;101192.38;;;-1.26;93.27
69855;BME280;57146;48.140;16.304;2024-01-30T02:28:06;101186.22;;;-1.25;92.74
69855;BME280;57146;48.140;16.304;2024-01-30T02:30:35;101187.41;;;-1.27;93.18
69855;BME280;57146;48.140;16.304;2024-01-30T02:33:02;101186.28;;;-1.33;93.41
69855;BME280;57146;48.140;16.304;2024-01-30T02:35:29;101184.25;;;-1.37;93.44
69855;BME280;57146;48.140;16.304;2024-01-30T02:37:56;101175.41;;;-1.43;93.30
69855;BME280;57146;48.140;16.304;2024-01-30T02:40:23;101185.38;;;-1.40;93.02
69855;BME280;57146;48.140;16.304;2024-01-30T02:42:50;101183.44;;;-1.38;93.54
69855;BME280;57146;48.140;16.304;2024-01-30T02:45:17;101194.66;;;-1.46;93.78
69855;BME280;57146;48.140;16.304;2024-01-30T02:47:45;101178.25;;;-1.53;93.73
69855;BME280;57146;48.140;16.304;2024-01-30T02:50:12;101186.94;;;-1.54;94.04
69855;BME280;57146;48.140;16.304;2024-01-30T02:52:40;101176.78;;;-1.55;93.91
69855;BME280;57146;48.140;16.304;2024-01-30T02:55:08;101173.88;;;-1.52;94.40
69855;BME280;57146;48.140;16.304;2024-01-30T02:57:36;101174.22;;;-1.55;94.83
69855;BME280;57146;48.140;16.304;2024-01-30T03:00:04;101171.97;;;-1.58;95.26
69855;BME280;57146;48.140;16.304;2024-01-30T03:02:32;101174.22;;;-1.55;95.21
69855;BME280;57146;48.140;16.304;2024-01-30T03:04:59;101172.88;;;-1.51;95.48
69855;BME280;57146;48.140;16.304;2024-01-30T03:07:26;101178.84;;;-1.51;95.33
69855;BME280;57146;48.140;16.304;2024-01-30T03:09:54;101175.75;;;-1.46;95.45
69855;BME280;57146;48.140;16.304;2024-01-30T03:12:21;101173.16;;;-1.46;95.54
69855;BME280;57146;48.140;16.304;2024-01-30T03:14:48;101169.44;;;-1.43;95.32
69855;BME280;57146;48.140;16.304;2024-01-30T03:17:15;101170.06;;;-1.41;95.88
69855;BME280;57146;48.140;16.304;2024-01-30T03:19:42;101169.44;;;-1.43;95.12
69855;BME280;57146;48.140;16.304;2024-01-30T03:22:10;101170.94;;;-1.49;95.67
69855;BME280;57146;48.140;16.304;2024-01-30T03:24:37;101167.72;;;-1.51;95.28
69855;BME280;57146;48.140;16.304;2024-01-30T03:27:04;101171.28;;;-1.52;95.39
69855;BME280;57146;48.140;16.304;2024-01-30T03:29:31;101163.88;;;-1.55;95.22
69855;BME280;57146;48.140;16.304;2024-01-30T03:31:58;101166.28;;;-1.54;95.33
69855;BME280;57146;48.140;16.304;2024-01-30T03:34:25;101165.13;;;-1.51;96.10
69855;BME280;57146;48.140;16.304;2024-01-30T03:36:52;101168.44;;;-1.42;96.75
69855;BME280;57146;48.140;16.304;2024-01-30T03:39:19;101173.28;;;-1.39;97.29
69855;BME280;57146;48.140;16.304;2024-01-30T03:41:46;101167.59;;;-1.35;97.53
69855;BME280;57146;48.140;16.304;2024-01-30T03:44:13;101163.03;;;-1.33;97.54
69855;BME280;57146;48.140;16.304;2024-01-30T03:46:40;101166.44;;;-1.32;98.16
69855;BME280;57146;48.140;16.304;2024-01-30T03:49:07;101158.69;;;-1.32;97.67
69855;BME280;57146;48.140;16.304;2024-01-30T03:51:34;101168.22;;;-1.33;97.84
69855;BME280;57146;48.140;16.304;2024-01-30T03:54:01;101166.63;;;-1.34;97.80
69855;BME280;57146;48.140;16.304;2024-01-30T03:56:28;101170.53;;;-1.38;97.64
69855;BME280;57146;48.140;16.304;2024-01-30T03:58:56;101169.72;;;-1.38;97.68
69855;BME280;57146;48.140;16.304;2024-01-30T04:01:23;101165.38;;;-1.38;97.77
69855;BME280;57146;48.140;16.304;2024-01-30T04:03:52;101165.16;;;-1.36;97.25
69855;BME280;57146;48.140;16.304;2024-01-30T04:06:19;101169.34;;;-1.35;98.01
69855;BME280;57146;48.140;16.304;2024-01-30T04:08:46;101173.91;;;-1.37;97.49
69855;BME280;57146;48.140;16.304;2024-01-30T04:11:14;101173.91;;;-1.37;97.45
69855;BME280;57146;48.140;16.304;2024-01-30T04:13:41;101179.22;;;-1.39;97.34
69855;BME280;57146;48.140;16.304;2024-01-30T04:16:08;101179.59;;;-1.42;97.23
69855;BME280;57146;48.140;16.304;2024-01-30T04:18:45;101172.00;;;-1.43;97.01
69855;BME280;57146;48.140;16.304;2024-01-30T04:21:12;101171.56;;;-1.47;96.99
69855;BME280;57146;48.140;16.304;2024-01-30T04:23:40;101171.91;;;-1.50;96.99
69855;BME280;57146;48.140;16.304;2024-01-30T04:26:07;101167.91;;;-1.53;96.57
69855;BME280;57146;48.140;16.304;2024-01-30T04:28:35;101170.19;;;-1.58;96.14
69855;BME280;57146;48.140;16.304;2024-01-30T04:31:02;101175.53;;;-1.59;95.85
69855;BME280;57146;48.140;16.304;2024-01-30T04:33:32;101178.63;;;-1.64;95.48
69855;BME280;57146;48.140;16.304;2024-01-30T04:36:00;101185.09;;;-1.68;95.02
69855;BME280;57146;48.140;16.304;2024-01-30T04:38:27;101171.59;;;-1.70;94.75
69855;BME280;57146;48.140;16.304;2024-01-30T04:40:54;101167.22;;;-1.70;94.58
69855;BME280;57146;48.140;16.304;2024-01-30T04:43:21;101172.84;;;-1.66;95.46
69855;BME280;57146;48.140;16.304;2024-01-30T04:45:49;101161.25;;;-1.70;95.47
69855;BME280;57146;48.140;16.304;2024-01-30T04:48:16;101172.72;;;-1.73;95.74
69855;BME280;57146;48.140;16.304;2024-01-30T04:50:43;101174.50;;;-1.73;95.89
69855;BME280;57146;48.140;16.304;2024-01-30T04:53:10;101173.72;;;-1.74;96.22
69855;BME280;57146;48.140;16.304;2024-01-30T04:55:37;101173.06;;;-1.76;96.05
69855;BME280;57146;48.140;16.304;2024-01-30T04:58:04;101172.91;;;-1.74;95.81
69855;BME280;57146;48.140;16.304;2024-01-30T05:00:31;101178.22;;;-1.76;95.97
69855;BME280;57146;48.140;16.304;2024-01-30T05:02:58;101178.22;;;-1.76;96.12
69855;BME280;57146;48.140;16.304;2024-01-30T05:05:25;101179.56;;;-1.80;95.71
69855;BME280;57146;48.140;16.304;2024-01-30T05:07:52;101170.69;;;-1.85;95.78
69855;BME280;57146;48.140;16.304;2024-01-30T05:10:19;101169.63;;;-1.91;95.58
69855;BME280;57146;48.140;16.304;2024-01-30T05:12:46;101174.31;;;-1.95;95.62
69855;BME280;57146;48.140;16.304;2024-01-30T05:15:13;101172.53;;;-1.94;95.38
69855;BME280;57146;48.140;16.304;2024-01-30T05:17:40;101179.63;;;-1.96;95.62
69855;BME280;57146;48.140;16.304;2024-01-30T05:20:10;101182.22;;;-1.96;95.63
69855;BME280;57146;48.140;16.304;2024-01-30T05:22:37;101184.19;;;-1.98;96.18
69855;BME280;57146;48.140;16.304;2024-01-30T05:25:05;101185.78;;;-1.97;96.19
69855;BME280;57146;48.140;16.304;2024-01-30T05:27:35;101185.25;;;-1.93;95.94
69855;BME280;57146;48.140;16.304;2024-01-30T05:30:02;101188.50;;;-1.90;96.52
69855;BME280;57146;48.140;16.304;2024-01-30T05:32:29;101188.50;;;-1.90;96.54
69855;BME280;57146;48.140;16.304;2024-01-30T05:34:57;101184.94;;;-1.89;96.54
69855;BME280;57146;48.140;16.304;2024-01-30T05:37:24;101183.13;;;-1.89;96.75
69855;BME280;57146;48.140;16.304;2024-01-30T05:39:51;101175.25;;;-1.87;97.05
69855;BME280;57146;48.140;16.304;2024-01-30T05:42:19;101184.78;;;-1.96;96.56
69855;BME280;57146;48.140;16.304;2024-01-30T05:44:46;101179.34;;;-2.01;96.27
69855;BME280;57146;48.140;16.304;2024-01-30T05:47:13;101191.47;;;-2.02;96.05
69855;BME280;57146;48.140;16.304;2024-01-30T05:49:40;101185.53;;;-2.10;95.75
69855;BME280;57146;48.140;16.304;2024-01-30T05:52:07;101178.94;;;-2.13;95.50
69855;BME280;57146;48.140;16.304;2024-01-30T05:54:34;101181.34;;;-2.11;95.88
69855;BME280;57146;48.140;16.304;2024-01-30T05:57:01;101185.72;;;-2.12;95.49
69855;BME280;57146;48.140;16.304;2024-01-30T05:59:29;101177.97;;;-2.12;95.29
69855;BME280;57146;48.140;16.304;2024-01-30T06:01:56;101190.06;;;-2.12;95.89
69855;BME280;57146;48.140;16.304;2024-01-30T06:04:25;101192.31;;;-2.09;95.90
69855;BME280;57146;48.140;16.304;2024-01-30T06:06:52;101189.25;;;-2.13;95.37
69855;BME280;57146;48.140;16.304;2024-01-30T06:09:19;101188.47;;;-2.22;95.20
69855;BME280;57146;48.140;16.304;2024-01-30T06:11:46;101198.97;;;-2.23;95.22
69855;BME280;57146;48.140;16.304;2024-01-30T06:14:13;101197.53;;;-2.26;94.89
69855;BME280;57146;48.140;16.304;2024-01-30T06:17:05;101198.06;;;-2.30;95.49
69855;BME280;57146;48.140;16.304;2024-01-30T06:19:34;101206.25;;;-2.27;95.09
69855;BME280;57146;48.140;16.304;2024-01-30T06:22:05;101207.38;;;-2.29;95.27
69855;BME280;57146;48.140;16.304;2024-01-30T06:24:35;101209.00;;;-2.28;95.54
69855;BME280;57146;48.140;16.304;2024-01-30T06:27:03;101208.19;;;-2.29;95.84
69855;BME280;57146;48.140;16.304;2024-01-30T06:29:30;101205.13;;;-2.32;95.66
69855;BME280;57146;48.140;16.304;2024-01-30T06:31:57;101206.75;;;-2.31;95.51
69855;BME280;57146;48.140;16.304;2024-01-30T06:34:25;101210.63;;;-2.27;95.45
69855;BME280;57146;48.140;16.304;2024-01-30T06:37:17;101213.00;;;-2.26;95.76
69855;BME280;57146;48.140;16.304;2024-01-30T06:39:44;101211.09;;;-2.24;96.39
69855;BME280;57146;48.140;16.304;2024-01-30T06:42:11;101216.56;;;-2.27;96.31
69855;BME280;57146;48.140;16.304;2024-01-30T06:44:39;101211.41;;;-2.27;95.72
69855;BME280;57146;48.140;16.304;2024-01-30T06:47:06;101214.00;;;-2.27;95.98
69855;BME280;57146;48.140;16.304;2024-01-30T06:49:33;101213.00;;;-2.26;95.79
69855;BME280;57146;48.140;16.304;2024-01-30T06:52:00;101215.09;;;-2.21;95.45
69855;BME280;57146;48.140;16.304;2024-01-30T06:54:28;101217.84;;;-2.23;95.56
69855;BME280;57146;48.140;16.304;2024-01-30T06:56:55;101228.16;;;-2.23;95.75
69855;BME280;57146;48.140;16.304;2024-01-30T06:59:22;101216.88;;;-2.22;95.71
69855;BME280;57146;48.140;16.304;2024-01-30T07:01:49;101219.78;;;-2.25;95.68
69855;BME280;57146;48.140;16.304;2024-01-30T07:04:16;101224.28;;;-2.19;95.86
69855;BME280;57146;48.140;16.304;2024-01-30T07:06:45;101217.97;;;-2.16;95.72
69855;BME280;57146;48.140;16.304;2024-01-30T07:09:12;101229.84;;;-2.07;96.32
69855;BME280;57146;48.140;16.304;2024-01-30T07:11:39;101234.19;;;-1.99;96.09
69855;BME280;57146;48.140;16.304;2024-01-30T07:14:06;101233.97;;;-1.89;96.67
69855;BME280;57146;48.140;16.304;2024-01-30T07:16:32;101232.97;;;-1.80;97.21
69855;BME280;57146;48.140;16.304;2024-01-30T07:18:59;101234.34;;;-1.70;97.37
69855;BME280;57146;48.140;16.304;2024-01-30T07:21:26;101241.44;;;-1.63;97.63
69855;BME280;57146;48.140;16.304;2024-01-30T07:23:54;101238.78;;;-1.55;97.26
69855;BME280;57146;48.140;16.304;2024-01-30T07:26:21;101243.72;;;-1.46;97.29
69855;BME280;57146;48.140;16.304;2024-01-30T07:28:49;101241.41;;;-1.40;97.53
69855;BME280;57146;48.140;16.304;2024-01-30T07:31:15;101251.06;;;-1.34;96.91
69855;BME280;57146;48.140;16.304;2024-01-30T07:33:42;101245.38;;;-1.30;96.83
69855;BME280;57146;48.140;16.304;2024-01-30T07:36:09;101245.31;;;-1.22;96.12
69855;BME280;57146;48.140;16.304;2024-01-30T07:38:36;101235.38;;;-1.10;95.75
69855;BME280;57146;48.140;16.304;2024-01-30T07:41:03;101240.28;;;-1.00;95.74
69855;BME280;57146;48.140;16.304;2024-01-30T07:43:30;101247.00;;;-0.91;95.43
69855;BME280;57146;48.140;16.304;2024-01-30T07:45:59;101242.09;;;-0.86;94.81
69855;BME280;57146;48.140;16.304;2024-01-30T07:48:26;101245.44;;;-0.77;94.47
69855;BME280;57146;48.140;16.304;2024-01-30T07:50:53;101231.59;;;-0.69;93.73
69855;BME280;57146;48.140;16.304;2024-01-30T07:53:20;101239.00;;;-0.66;93.88
69855;BME280;57146;48.140;16.304;2024-01-30T07:55:47;101241.25;;;-0.63;93.87
69855;BME280;57146;48.140;16.304;2024-01-30T07:58:14;101240.16;;;-0.54;92.85
69855;BME280;57146;48.140;16.304;2024-01-30T08:00:41;101246.59;;;-0.50;92.44
69855;BME280;57146;48.140;16.304;2024-01-30T08:03:08;101248.81;;;-0.47;92.02
69855;BME280;57146;48.140;16.304;2024-01-30T08:05:35;101252.84;;;-0.44;92.32
69855;BME280;57146;48.140;16.304;2024-01-30T08:08:02;101251.06;;;-0.44;91.24
69855;BME280;57146;48.140;16.304;2024-01-30T08:10:29;101254.53;;;-0.37;90.57
69855;BME280;57146;48.140;16.304;2024-01-30T08:12:56;101250.88;;;-0.28;91.54
69855;BME280;57146;48.140;16.304;2024-01-30T08:15:23;101257.56;;;-0.18;91.24
69855;BME280;57146;48.140;16.304;2024-01-30T08:17:50;101252.91;;;-0.08;91.24
69855;BME280;57146;48.140;16.304;2024-01-30T08:20:16;101257.19;;;-0.01;90.40
69855;BME280;57146;48.140;16.304;2024-01-30T08:22:43;101250.47;;;0.05;89.39
69855;BME280;57146;48.140;16.304;2024-01-30T08:25:11;101253.75;;;0.14;90.25
69855;BME280;57146;48.140;16.304;2024-01-30T08:27:37;101258.22;;;0.20;89.31
69855;BME280;57146;48.140;16.304;2024-01-30T08:30:08;101251.97;;;0.29;89.24
69855;BME280;57146;48.140;16.304;2024-01-30T08:32:35;101257.66;;;0.39;89.19
69855;BME280;57146;48.140;16.304;2024-01-30T08:35:03;101256.88;;;0.45;88.51
69855;BME280;57146;48.140;16.304;2024-01-30T08:37:30;101255.97;;;0.53;88.20
69855;BME280;57146;48.140;16.304;2024-01-30T08:39:57;101249.25;;;0.59;87.12
69855;BME280;57146;48.140;16.304;2024-01-30T08:42:24;101253.56;;;0.73;86.67
69855;BME280;57146;48.140;16.304;2024-01-30T08:44:51;101249.66;;;0.84;86.84
69855;BME280;57146;48.140;16.304;2024-01-30T08:47:18;101250.91;;;0.88;85.55
69855;BME280;57146;48.140;16.304;2024-01-30T08:49:45;101259.53;;;0.95;85.51
69855;BME280;57146;48.140;16.304;2024-01-30T08:52:12;101255.19;;;1.02;85.16
69855;BME280;57146;48.140;16.304;2024-01-30T08:55:04;101254.47;;;1.08;84.80
69855;BME280;57146;48.140;16.304;2024-01-30T08:57:31;101253.84;;;1.06;84.55
69855;BME280;57146;48.140;16.304;2024-01-30T08:59:57;101254.31;;;1.16;83.97
69855;BME280;57146;48.140;16.304;2024-01-30T09:02:24;101253.19;;;1.26;83.50
69855;BME280;57146;48.140;16.304;2024-01-30T09:04:53;101256.63;;;1.33;83.70
69855;BME280;57146;48.140;16.304;2024-01-30T09:07:20;101252.44;;;1.38;83.60
69855;BME280;57146;48.140;16.304;2024-01-30T09:09:47;101250.91;;;1.44;83.79
69855;BME280;57146;48.140;16.304;2024-01-30T09:12:14;101255.34;;;1.50;83.48
69855;BME280;57146;48.140;16.304;2024-01-30T09:14:41;101251.16;;;1.56;83.31
69855;BME280;57146;48.140;16.304;2024-01-30T09:17:09;101259.78;;;1.63;82.86
69855;BME280;57146;48.140;16.304;2024-01-30T09:19:36;101252.84;;;1.70;82.02
69855;BME280;57146;48.140;16.304;2024-01-30T09:22:03;101251.28;;;1.76;81.95
69855;BME280;57146;48.140;16.304;2024-01-30T09:24:30;101249.88;;;1.80;81.17
69855;BME280;57146;48.140;16.304;2024-01-30T09:26:57;101261.31;;;1.85;81.07
69855;BME280;57146;48.140;16.304;2024-01-30T09:29:25;101263.31;;;1.90;81.71
69855;BME280;57146;48.140;16.304;2024-01-30T09:31:52;101261.72;;;1.96;81.13
69855;BME280;57146;48.140;16.304;2024-01-30T09:34:19;101266.16;;;2.02;81.03
69855;BME280;57146;48.140;16.304;2024-01-30T09:36:49;101262.78;;;2.08;80.95
69855;BME280;57146;48.140;16.304;2024-01-30T09:39:16;101253.41;;;2.07;80.02
69855;BME280;57146;48.140;16.304;2024-01-30T09:41:51;101257.81;;;2.13;79.42
69855;BME280;57146;48.140;16.304;2024-01-30T09:44:23;101254.63;;;2.18;79.29
69855;BME280;57146;48.140;16.304;2024-01-30T09:46:52;101258.44;;;2.22;78.99
69855;BME280;57146;48.140;16.304;2024-01-30T09:49:20;101258.06;;;2.25;78.95
69855;BME280;57146;48.140;16.304;2024-01-30T09:51:48;101249.66;;;2.29;79.01
69855;BME280;57146;48.140;16.304;2024-01-30T09:54:15;101262.28;;;2.39;78.71
69855;BME280;57146;48.140;16.304;2024-01-30T09:56:43;101248.31;;;2.53;78.27
69855;BME280;57146;48.140;16.304;2024-01-30T09:59:11;101248.34;;;2.60;77.99
69855;BME280;57146;48.140;16.304;2024-01-30T10:01:38;101247.75;;;2.71;76.85
69855;BME280;57146;48.140;16.304;2024-01-30T10:04:37;101242.94;;;2.81;76.58
69855;BME280;57146;48.140;16.304;2024-01-30T10:07:05;101244.56;;;2.89;75.29
69855;BME280;57146;48.140;16.304;2024-01-30T10:09:32;101250.72;;;2.95;74.96
69855;BME280;57146;48.140;16.304;2024-01-30T10:12:01;101241.75;;;2.97;75.64
69855;BME280;57146;48.140;16.304;2024-01-30T10:14:40;101239.31;;;3.02;74.93
69855;BME280;57146;48.140;16.304;2024-01-30T10:17:08;101236.13;;;3.07;74.38
69855;BME280;57146;48.140;16.304;2024-01-30T10:19:51;101237.13;;;3.12;75.37
69855;BME280;57146;48.140;16.304;2024-01-30T10:22:19;101242.53;;;3.18;74.46
69855;BME280;57146;48.140;16.304;2024-01-30T10:24:51;101236.94;;;3.21;73.80
69855;BME280;57146;48.140;16.304;2024-01-30T10:27:25;101236.50;;;3.30;73.51
69855;BME280;57146;48.140;16.304;2024-01-30T10:29:52;101233.69;;;3.39;72.35
69855;BME280;57146;48.140;16.304;2024-01-30T10:32:19;101233.28;;;3.42;73.17
69855;BME280;57146;48.140;16.304;2024-01-30T10:34:50;101226.28;;;3.42;72.99
69855;BME280;57146;48.140;16.304;2024-01-30T10:37:18;101219.84;;;3.45;71.75
69855;BME280;57146;48.140;16.304;2024-01-30T10:39:46;101217.44;;;3.50;72.92
69855;BME280;57146;48.140;16.304;2024-01-30T10:42:26;101215.38;;;3.58;72.44
69855;BME280;57146;48.140;16.304;2024-01-30T10:47:34;101205.34;;;3.69;71.95
69855;BME280;57146;48.140;16.304;2024-01-30T10:50:02;101201.31;;;3.73;71.46
69855;BME280;57146;48.140;16.304;2024-01-30T10:52:29;101207.53;;;3.72;71.29
69855;BME280;57146;48.140;16.304;2024-01-30T10:54:56;101209.13;;;3.73;70.81
69855;BME280;57146;48.140;16.304;2024-01-30T10:57:47;101202.72;;;3.75;71.60
69855;BME280;57146;48.140;16.304;2024-01-30T11:00:14;101207.28;;;3.80;71.91
69855;BME280;57146;48.140;16.304;2024-01-30T11:02:44;101209.50;;;3.83;71.67
69855;BME280;57146;48.140;16.304;2024-01-30T11:05:12;101198.25;;;3.89;71.78
69855;BME280;57146;48.140;16.304;2024-01-30T11:08:13;101202.84;;;3.87;70.54
69855;BME280;57146;48.140;16.304;2024-01-30T11:10:48;101194.84;;;3.89;70.27
69855;BME280;57146;48.140;16.304;2024-01-30T11:13:16;101200.44;;;3.92;71.12
69855;BME280;57146;48.140;16.304;2024-01-30T11:15:43;101191.59;;;3.93;70.89
69855;BME280;57146;48.140;16.304;2024-01-30T11:18:29;101196.78;;;4.00;71.20
69855;BME280;57146;48.140;16.304;2024-01-30T11:21:20;101190.19;;;3.97;70.68
69855;BME280;57146;48.140;16.304;2024-01-30T11:23:54;101189.59;;;3.95;70.74
69855;BME280;57146;48.140;16.304;2024-01-30T11:26:27;101184.97;;;3.97;70.92
69855;BME280;57146;48.140;16.304;2024-01-30T11:29:19;101180.78;;;3.96;70.98
69855;BME280;57146;48.140;16.304;2024-01-30T11:31:56;101181.34;;;3.98;70.52
69855;BME280;57146;48.140;16.304;2024-01-30T11:34:24;101182.97;;;3.99;70.84
69855;BME280;57146;48.140;16.304;2024-01-30T11:36:57;101179.31;;;4.07;70.80
69855;BME280;57146;48.140;16.304;2024-01-30T11:39:29;101176.09;;;4.05;70.86
69855;BME280;57146;48.140;16.304;2024-01-30T11:41:58;101173.31;;;4.06;71.26
69855;BME280;57146;48.140;16.304;2024-01-30T11:44:26;101167.88;;;4.08;71.09
69855;BME280;57146;48.140;16.304;2024-01-30T11:46:53;101163.44;;;4.08;71.03
69855;BME280;57146;48.140;16.304;2024-01-30T11:49:20;101165.00;;;4.16;69.63
69855;BME280;57146;48.140;16.304;2024-01-30T11:51:48;101165.41;;;4.20;69.74
69855;BME280;57146;48.140;16.304;2024-01-30T11:54:16;101164.59;;;4.19;70.21
69855;BME280;57146;48.140;16.304;2024-01-30T11:56:43;101161.78;;;4.21;70.52
69855;BME280;57146;48.140;16.304;2024-01-30T11:59:11;101167.19;;;4.19;70.26
69855;BME280;57146;48.140;16.304;2024-01-30T12:01:38;101168.16;;;4.25;69.83
69855;BME280;57146;48.140;16.304;2024-01-30T12:04:09;101162.72;;;4.26;70.16
69855;BME280;57146;48.140;16.304;2024-01-30T12:06:39;101165.34;;;4.26;69.94
69855;BME280;57146;48.140;16.304;2024-01-30T12:09:06;101154.06;;;4.32;70.35
69855;BME280;57146;48.140;16.304;2024-01-30T12:11:43;101154.44;;;4.36;70.68
69855;BME280;57146;48.140;16.304;2024-01-30T12:14:15;101146.81;;;4.41;69.97
69855;BME280;57146;48.140;16.304;2024-01-30T12:16:42;101148.59;;;4.41;69.71
69855;BME280;57146;48.140;16.304;2024-01-30T12:19:09;101145.19;;;4.40;70.41
69855;BME280;57146;48.140;16.304;2024-01-30T12:21:39;101134.34;;;4.43;70.42
69855;BME280;57146;48.140;16.304;2024-01-30T12:24:06;101139.91;;;4.47;70.64
69855;BME280;57146;48.140;16.304;2024-01-30T12:26:35;101131.06;;;4.48;70.42
69855;BME280;57146;48.140;16.304;2024-01-30T12:29:03;101133.25;;;4.51;70.68
69855;BME280;57146;48.140;16.304;2024-01-30T12:31:32;101132.03;;;4.53;70.67
69855;BME280;57146;48.140;16.304;2024-01-30T12:34:00;101137.84;;;4.55;70.23
69855;BME280;57146;48.140;16.304;2024-01-30T12:36:28;101136.63;;;4.58;70.51
69855;BME280;57146;48.140;16.304;2024-01-30T12:38:56;101131.78;;;4.62;70.45
69855;BME280;57146;48.140;16.304;2024-01-30T12:41:26;101135.16;;;4.62;69.96
69855;BME280;57146;48.140;16.304;2024-01-30T12:43:53;101135.16;;;4.62;69.63
69855;BME280;57146;48.140;16.304;2024-01-30T12:46:20;101134.38;;;4.62;69.25
69855;BME280;57146;48.140;16.304;2024-01-30T12:48:47;101122.34;;;4.61;69.25
69855;BME280;57146;48.140;16.304;2024-01-30T12:51:14;101130.97;;;4.61;69.54